sensor_id;sensor_type;location;lat;lon;timestamp;temperature;humidity
70271;SHT31;57680;54.292;18.598;2023-09-12T00:02:04;16.70;92.98
70271;SHT31;57680;54.292;18.598;2023-09-12T00:04:29;16.73;93.41
70271;SHT31;57680;54.292;18.598;2023-09-12T00:06:55;16.79;93.46
70271;SHT31;57680;54.292;18.598;2023-09-12T00:09:20;16.79;93.78
70271;SHT31;57680;54.292;18.598;2023-09-12T00:11:45;16.84;93.47
70271;SHT31;57680;54.292;18.598;2023-09-12T00:14:15;16.88;93.18
70271;SHT31;57680;54.292;18.598;2023-09-12T00:16:40;16.93;93.15
70271;SHT31;57680;54.292;18.598;2023-09-12T00:19:05;17.00;92.96
70271;SHT31;57680;54.292;18.598;2023-09-12T00:21:31;17.04;92.81
70271;SHT31;57680;54.292;18.598;2023-09-12T00:23:56;17.00;92.63
70271;SHT31;57680;54.292;18.598;2023-09-12T00:26:21;17.00;92.75
70271;SHT31;57680;54.292;18.598;2023-09-12T00:28:47;17.06;92.52
70271;SHT31;57680;54.292;18.598;2023-09-12T00:31:12;17.03;92.25
70271;SHT31;57680;54.292;18.598;2023-09-12T00:33:37;17.08;92.27
70271;SHT31;57680;54.292;18.598;2023-09-12T00:36:03;17.10;92.13
70271;SHT31;57680;54.292;18.598;2023-09-12T00:38:28;17.14;92.00
70271;SHT31;57680;54.292;18.598;2023-09-12T00:40:53;17.21;92.14
70271;SHT31;57680;54.292;18.598;2023-09-12T00:43:18;17.24;91.96
70271;SHT31;57680;54.292;18.598;2023-09-12T00:45:44;17.28;91.88
70271;SHT31;57680;54.292;18.598;2023-09-12T00:48:09;17.28;91.93
70271;SHT31;57680;54.292;18.598;2023-09-12T00:50:36;17.28;91.70
70271;SHT31;57680;54.292;18.598;2023-09-12T00:53:03;17.34;91.70
70271;SHT31;57680;54.292;18.598;2023-09-12T00:55:29;17.34;91.56
70271;SHT31;57680;54.292;18.598;2023-09-12T00:57:56;17.36;91.50
70271;SHT31;57680;54.292;18.598;2023-09-12T01:00:22;17.34;91.60
70271;SHT31;57680;54.292;18.598;2023-09-12T01:02:48;17.36;91.66
70271;SHT31;57680;54.292;18.598;2023-09-12T01:05:14;17.34;91.62
70271;SHT31;57680;54.292;18.598;2023-09-12T01:07:40;17.36;91.56
70271;SHT31;57680;54.292;18.598;2023-09-12T01:10:07;17.39;91.21
70271;SHT31;57680;54.292;18.598;2023-09-12T01:12:33;17.42;91.19
70271;SHT31;57680;54.292;18.598;2023-09-12T01:14:58;17.44;91.19
70271;SHT31;57680;54.292;18.598;2023-09-12T01:17:25;17.42;91.19
70271;SHT31;57680;54.292;18.598;2023-09-12T01:19:51;17.41;90.97
70271;SHT31;57680;54.292;18.598;2023-09-12T01:28:16;17.11;91.64
70271;SHT31;57680;54.292;18.598;2023-09-12T01:30:44;17.07;92.12
70271;SHT31;57680;54.292;18.598;2023-09-12T01:33:11;17.00;92.30
70271;SHT31;57680;54.292;18.598;2023-09-12T01:35:36;16.95;92.49
70271;SHT31;57680;54.292;18.598;2023-09-12T01:38:01;16.91;92.45
70271;SHT31;57680;54.292;18.598;2023-09-12T01:40:39;16.83;92.70
70271;SHT31;57680;54.292;18.598;2023-09-12T01:43:07;16.81;93.10
70271;SHT31;57680;54.292;18.598;2023-09-12T01:45:33;16.87;93.26
70271;SHT31;57680;54.292;18.598;2023-09-12T01:48:01;16.93;93.16
70271;SHT31;57680;54.292;18.598;2023-09-12T01:50:28;16.99;92.73
70271;SHT31;57680;54.292;18.598;2023-09-12T01:52:54;17.08;92.61
70271;SHT31;57680;54.292;18.598;2023-09-12T01:55:20;17.08;92.42
70271;SHT31;57680;54.292;18.598;2023-09-12T01:57:46;17.13;92.23
70271;SHT31;57680;54.292;18.598;2023-09-12T02:00:12;17.18;91.89
70271;SHT31;57680;54.292;18.598;2023-09-12T02:02:38;17.25;91.58
70271;SHT31;57680;54.292;18.598;2023-09-12T02:05:11;17.38;90.99
70271;SHT31;57680;54.292;18.598;2023-09-12T02:07:41;17.49;90.44
70271;SHT31;57680;54.292;18.598;2023-09-12T02:10:07;17.58;89.92
70271;SHT31;57680;54.292;18.598;2023-09-12T02:12:32;17.65;89.54
70271;SHT31;57680;54.292;18.598;2023-09-12T02:14:57;17.69;89.47
70271;SHT31;57680;54.292;18.598;2023-09-12T02:17:23;17.69;89.24
70271;SHT31;57680;54.292;18.598;2023-09-12T02:19:48;17.68;89.02
70271;SHT31;57680;54.292;18.598;2023-09-12T02:22:14;17.61;89.03
70271;SHT31;57680;54.292;18.598;2023-09-12T02:24:39;17.53;89.36
70271;SHT31;57680;54.292;18.598;2023-09-12T02:27:04;17.48;89.65
70271;SHT31;57680;54.292;18.598;2023-09-12T02:29:30;17.36;89.76
70271;SHT31;57680;54.292;18.598;2023-09-12T02:31:56;17.27;89.98
70271;SHT31;57680;54.292;18.598;2023-09-12T02:34:21;17.14;90.27
70271;SHT31;57680;54.292;18.598;2023-09-12T02:36:46;17.04;90.44
70271;SHT31;57680;54.292;18.598;2023-09-12T02:39:11;16.90;90.75
70271;SHT31;57680;54.292;18.598;2023-09-12T02:41:37;16.79;90.98
70271;SHT31;57680;54.292;18.598;2023-09-12T02:44:02;16.67;91.04
70271;SHT31;57680;54.292;18.598;2023-09-12T02:46:28;16.52;91.26
70271;SHT31;57680;54.292;18.598;2023-09-12T02:48:53;16.38;91.48
70271;SHT31;57680;54.292;18.598;2023-09-12T02:51:18;16.23;91.71
70271;SHT31;57680;54.292;18.598;2023-09-12T02:53:44;16.15;92.25
70271;SHT31;57680;54.292;18.598;2023-09-12T02:56:09;16.09;92.82
70271;SHT31;57680;54.292;18.598;2023-09-12T02:58:34;16.06;93.03
70271;SHT31;57680;54.292;18.598;2023-09-12T03:01:00;16.01;92.92
70271;SHT31;57680;54.292;18.598;2023-09-12T03:03:25;15.90;93.02
70271;SHT31;57680;54.292;18.598;2023-09-12T03:06:00;15.78;92.93
70271;SHT31;57680;54.292;18.598;2023-09-12T03:08:26;15.71;93.22
70271;SHT31;57680;54.292;18.598;2023-09-12T03:10:55;15.60;93.45
70271;SHT31;57680;54.292;18.598;2023-09-12T03:13:21;15.57;94.01
70271;SHT31;57680;54.292;18.598;2023-09-12T03:15:46;15.58;94.91
70271;SHT31;57680;54.292;18.598;2023-09-12T03:18:11;15.73;95.82
70271;SHT31;57680;54.292;18.598;2023-09-12T03:20:40;15.80;95.28
70271;SHT31;57680;54.292;18.598;2023-09-12T03:23:05;15.74;95.00
70271;SHT31;57680;54.292;18.598;2023-09-12T03:25:35;15.71;95.05
70271;SHT31;57680;54.292;18.598;2023-09-12T03:28:00;15.75;95.65
70271;SHT31;57680;54.292;18.598;2023-09-12T03:30:26;15.74;95.38
70271;SHT31;57680;54.292;18.598;2023-09-12T03:32:51;15.68;95.27
70271;SHT31;57680;54.292;18.598;2023-09-12T03:35:16;15.61;95.36
70271;SHT31;57680;54.292;18.598;2023-09-12T03:37:41;15.58;95.40
70271;SHT31;57680;54.292;18.598;2023-09-12T03:40:07;15.50;95.37
70271;SHT31;57680;54.292;18.598;2023-09-12T03:42:33;15.42;95.39
70271;SHT31;57680;54.292;18.598;2023-09-12T03:44:58;15.34;95.36
70271;SHT31;57680;54.292;18.598;2023-09-12T03:47:23;15.32;95.47
70271;SHT31;57680;54.292;18.598;2023-09-12T03:49:49;15.26;95.47
70271;SHT31;57680;54.292;18.598;2023-09-12T03:52:14;15.19;95.55
70271;SHT31;57680;54.292;18.598;2023-09-12T03:54:39;15.13;95.60
70271;SHT31;57680;54.292;18.598;2023-09-12T03:57:04;15.07;96.06
70271;SHT31;57680;54.292;18.598;2023-09-12T03:59:30;15.06;95.92
70271;SHT31;57680;54.292;18.598;2023-09-12T04:01:55;15.03;96.05
70271;SHT31;57680;54.292;18.598;2023-09-12T04:04:20;15.00;96.15
70271;SHT31;57680;54.292;18.598;2023-09-12T04:06:46;14.91;96.11
70271;SHT31;57680;54.292;18.598;2023-09-12T04:09:11;14.89;96.40
70271;SHT31;57680;54.292;18.598;2023-09-12T04:11:37;14.88;96.63
70271;SHT31;57680;54.292;18.598;2023-09-12T04:14:02;14.93;96.96
70271;SHT31;57680;54.292;18.598;2023-09-12T04:16:27;14.99;97.26
70271;SHT31;57680;54.292;18.598;2023-09-12T04:18:52;15.10;97.48
70271;SHT31;57680;54.292;18.598;2023-09-12T04:21:18;15.19;97.19
70271;SHT31;57680;54.292;18.598;2023-09-12T04:23:43;15.26;97.03
70271;SHT31;57680;54.292;18.598;2023-09-12T04:26:08;15.34;96.68
70271;SHT31;57680;54.292;18.598;2023-09-12T04:28:34;15.40;96.32
70271;SHT31;57680;54.292;18.598;2023-09-12T04:31:03;15.50;96.08
70271;SHT31;57680;54.292;18.598;2023-09-12T04:33:28;15.58;95.75
70271;SHT31;57680;54.292;18.598;2023-09-12T04:35:53;15.67;95.71
70271;SHT31;57680;54.292;18.598;2023-09-12T04:38:19;15.87;95.04
70271;SHT31;57680;54.292;18.598;2023-09-12T04:40:53;16.04;94.28
70271;SHT31;57680;54.292;18.598;2023-09-12T04:43:18;16.21;93.71
70271;SHT31;57680;54.292;18.598;2023-09-12T04:45:44;16.42;93.35
70271;SHT31;57680;54.292;18.598;2023-09-12T04:48:09;16.63;93.03
70271;SHT31;57680;54.292;18.598;2023-09-12T04:50:40;16.93;92.70
70271;SHT31;57680;54.292;18.598;2023-09-12T04:53:06;17.08;91.27
70271;SHT31;57680;54.292;18.598;2023-09-12T04:55:31;17.30;90.59
70271;SHT31;57680;54.292;18.598;2023-09-12T04:57:56;17.55;89.99
70271;SHT31;57680;54.292;18.598;2023-09-12T05:00:21;17.87;89.15
70271;SHT31;57680;54.292;18.598;2023-09-12T05:02:47;18.23;88.74
70271;SHT31;57680;54.292;18.598;2023-09-12T05:05:12;18.54;87.35
70271;SHT31;57680;54.292;18.598;2023-09-12T05:07:37;18.79;86.65
70271;SHT31;57680;54.292;18.598;2023-09-12T05:10:03;18.92;85.43
70271;SHT31;57680;54.292;18.598;2023-09-12T05:12:28;19.12;84.46
70271;SHT31;57680;54.292;18.598;2023-09-12T05:14:54;19.33;84.03
70271;SHT31;57680;54.292;18.598;2023-09-12T05:17:19;19.59;82.83
70271;SHT31;57680;54.292;18.598;2023-09-12T05:19:44;19.85;82.24
70271;SHT31;57680;54.292;18.598;2023-09-12T05:22:10;20.15;82.02
70271;SHT31;57680;54.292;18.598;2023-09-12T05:24:35;20.41;80.64
70271;SHT31;57680;54.292;18.598;2023-09-12T05:27:00;20.55;79.38
70271;SHT31;57680;54.292;18.598;2023-09-12T05:29:26;20.75;79.14
70271;SHT31;57680;54.292;18.598;2023-09-12T05:31:51;20.97;78.24
70271;SHT31;57680;54.292;18.598;2023-09-12T05:34:16;21.27;77.29
70271;SHT31;57680;54.292;18.598;2023-09-12T05:36:42;21.47;77.25
70271;SHT31;57680;54.292;18.598;2023-09-12T05:39:07;21.68;77.87
70271;SHT31;57680;54.292;18.598;2023-09-12T05:41:33;22.14;77.81
70271;SHT31;57680;54.292;18.598;2023-09-12T05:43:58;22.41;77.41
70271;SHT31;57680;54.292;18.598;2023-09-12T05:46:23;22.57;76.73
70271;SHT31;57680;54.292;18.598;2023-09-12T05:48:49;22.81;76.38
70271;SHT31;57680;54.292;18.598;2023-09-12T05:51:14;22.99;76.01
70271;SHT31;57680;54.292;18.598;2023-09-12T05:53:39;23.19;75.63
70271;SHT31;57680;54.292;18.598;2023-09-12T05:56:04;23.37;74.50
70271;SHT31;57680;54.292;18.598;2023-09-12T05:58:30;23.55;73.95
70271;SHT31;57680;54.292;18.598;2023-09-12T06:00:55;23.66;74.13
70271;SHT31;57680;54.292;18.598;2023-09-12T06:03:20;23.74;73.66
70271;SHT31;57680;54.292;18.598;2023-09-12T06:05:46;23.73;72.92
70271;SHT31;57680;54.292;18.598;2023-09-12T06:08:11;23.59;72.78
70271;SHT31;57680;54.292;18.598;2023-09-12T06:10:36;23.65;72.93
70271;SHT31;57680;54.292;18.598;2023-09-12T06:13:02;23.69;72.08
70271;SHT31;57680;54.292;18.598;2023-09-12T06:15:27;23.71;72.10
70271;SHT31;57680;54.292;18.598;2023-09-12T06:17:53;23.74;72.37
70271;SHT31;57680;54.292;18.598;2023-09-12T06:20:18;23.84;72.70
70271;SHT31;57680;54.292;18.598;2023-09-12T06:22:43;23.65;71.90
70271;SHT31;57680;54.292;18.598;2023-09-12T06:25:08;23.70;72.51
70271;SHT31;57680;54.292;18.598;2023-09-12T06:27:34;23.76;72.18
70271;SHT31;57680;54.292;18.598;2023-09-12T06:29:59;23.71;71.49
70271;SHT31;57680;54.292;18.598;2023-09-12T06:32:24;23.71;71.74
70271;SHT31;57680;54.292;18.598;2023-09-12T06:34:50;23.76;72.74
70271;SHT31;57680;54.292;18.598;2023-09-12T06:37:15;23.87;72.81
70271;SHT31;57680;54.292;18.598;2023-09-12T06:39:40;24.07;72.52
70271;SHT31;57680;54.292;18.598;2023-09-12T06:42:06;24.16;72.09
70271;SHT31;57680;54.292;18.598;2023-09-12T06:44:34;24.22;71.91
70271;SHT31;57680;54.292;18.598;2023-09-12T06:47:00;24.34;70.08
70271;SHT31;57680;54.292;18.598;2023-09-12T06:49:25;24.38;70.81
70271;SHT31;57680;54.292;18.598;2023-09-12T06:51:50;24.42;69.79
70271;SHT31;57680;54.292;18.598;2023-09-12T06:54:16;24.58;69.75
70271;SHT31;57680;54.292;18.598;2023-09-12T06:56:41;24.64;70.11
70271;SHT31;57680;54.292;18.598;2023-09-12T06:59:07;24.78;68.58
70271;SHT31;57680;54.292;18.598;2023-09-12T07:01:32;24.86;67.53
70271;SHT31;57680;54.292;18.598;2023-09-12T07:06:33;24.98;68.64
70271;SHT31;57680;54.292;18.598;2023-09-12T07:08:58;24.95;68.49
70271;SHT31;57680;54.292;18.598;2023-09-12T07:11:23;25.19;67.59
70271;SHT31;57680;54.292;18.598;2023-09-12T07:13:49;25.43;66.46
70271;SHT31;57680;54.292;18.598;2023-09-12T07:16:14;25.58;65.27
70271;SHT31;57680;54.292;18.598;2023-09-12T07:18:39;25.63;66.60
70271;SHT31;57680;54.292;18.598;2023-09-12T07:21:05;25.82;65.91
70271;SHT31;57680;54.292;18.598;2023-09-12T07:23:31;25.92;63.97
70271;SHT31;57680;54.292;18.598;2023-09-12T07:25:57;25.81;64.36
70271;SHT31;57680;54.292;18.598;2023-09-12T07:28:23;26.04;64.99
70271;SHT31;57680;54.292;18.598;2023-09-12T07:30:48;25.88;65.85
70271;SHT31;57680;54.292;18.598;2023-09-12T07:33:14;26.15;65.44
70271;SHT31;57680;54.292;18.598;2023-09-12T07:35:39;26.33;65.62
70271;SHT31;57680;54.292;18.598;2023-09-12T07:38:05;26.52;64.28
70271;SHT31;57680;54.292;18.598;2023-09-12T07:40:30;26.49;65.33
70271;SHT31;57680;54.292;18.598;2023-09-12T07:42:55;26.66;63.55
70271;SHT31;57680;54.292;18.598;2023-09-12T07:45:21;26.76;62.97
70271;SHT31;57680;54.292;18.598;2023-09-12T07:47:46;26.86;64.01
70271;SHT31;57680;54.292;18.598;2023-09-12T07:50:12;26.97;63.59
70271;SHT31;57680;54.292;18.598;2023-09-12T07:52:37;27.08;64.15
70271;SHT31;57680;54.292;18.598;2023-09-12T07:55:04;27.03;65.07
70271;SHT31;57680;54.292;18.598;2023-09-12T07:57:30;27.14;64.86
70271;SHT31;57680;54.292;18.598;2023-09-12T07:59:56;26.72;64.86
70271;SHT31;57680;54.292;18.598;2023-09-12T08:02:22;26.52;66.06
70271;SHT31;57680;54.292;18.598;2023-09-12T08:04:49;26.64;66.66
70271;SHT31;57680;54.292;18.598;2023-09-12T08:07:14;26.73;64.73
70271;SHT31;57680;54.292;18.598;2023-09-12T08:09:54;26.94;65.53
70271;SHT31;57680;54.292;18.598;2023-09-12T08:12:21;27.25;66.32
70271;SHT31;57680;54.292;18.598;2023-09-12T08:14:47;27.38;64.91
70271;SHT31;57680;54.292;18.598;2023-09-12T08:17:13;27.49;66.26
70271;SHT31;57680;54.292;18.598;2023-09-12T08:19:39;27.73;64.34
70271;SHT31;57680;54.292;18.598;2023-09-12T08:22:05;27.79;64.50
70271;SHT31;57680;54.292;18.598;2023-09-12T08:24:31;27.99;64.46
70271;SHT31;57680;54.292;18.598;2023-09-12T08:26:56;28.02;61.36
70271;SHT31;57680;54.292;18.598;2023-09-12T08:29:22;28.06;63.16
70271;SHT31;57680;54.292;18.598;2023-09-12T08:31:47;28.20;62.83
70271;SHT31;57680;54.292;18.598;2023-09-12T08:34:13;28.32;62.48
70271;SHT31;57680;54.292;18.598;2023-09-12T08:36:38;28.36;62.09
70271;SHT31;57680;54.292;18.598;2023-09-12T08:39:03;28.43;62.30
70271;SHT31;57680;54.292;18.598;2023-09-12T08:41:29;28.48;62.07
70271;SHT31;57680;54.292;18.598;2023-09-12T08:43:55;28.61;61.32
70271;SHT31;57680;54.292;18.598;2023-09-12T08:46:22;28.71;60.21
70271;SHT31;57680;54.292;18.598;2023-09-12T08:48:49;28.85;60.40
70271;SHT31;57680;54.292;18.598;2023-09-12T08:51:14;28.90;59.89
70271;SHT31;57680;54.292;18.598;2023-09-12T08:53:40;29.02;59.43
70271;SHT31;57680;54.292;18.598;2023-09-12T08:56:05;29.08;58.62
70271;SHT31;57680;54.292;18.598;2023-09-12T08:58:32;29.18;58.77
70271;SHT31;57680;54.292;18.598;2023-09-12T09:01:00;29.29;56.37
70271;SHT31;57680;54.292;18.598;2023-09-12T09:03:25;29.36;56.18
70271;SHT31;57680;54.292;18.598;2023-09-12T09:05:52;29.56;56.36
70271;SHT31;57680;54.292;18.598;2023-09-12T09:08:19;29.73;57.73
70271;SHT31;57680;54.292;18.598;2023-09-12T09:10:55;29.83;55.54
70271;SHT31;57680;54.292;18.598;2023-09-12T09:13:21;29.96;54.75
70271;SHT31;57680;54.292;18.598;2023-09-12T09:15:46;29.90;52.69
70271;SHT31;57680;54.292;18.598;2023-09-12T09:18:12;29.94;52.13
70271;SHT31;57680;54.292;18.598;2023-09-12T09:20:37;29.97;53.19
70271;SHT31;57680;54.292;18.598;2023-09-12T09:23:08;30.03;52.79
70271;SHT31;57680;54.292;18.598;2023-09-12T09:25:34;30.10;50.63
70271;SHT31;57680;54.292;18.598;2023-09-12T09:28:03;30.13;52.17
70271;SHT31;57680;54.292;18.598;2023-09-12T09:30:48;30.29;52.91
70271;SHT31;57680;54.292;18.598;2023-09-12T09:33:14;30.23;53.40
70271;SHT31;57680;54.292;18.598;2023-09-12T09:35:47;30.36;52.38
70271;SHT31;57680;54.292;18.598;2023-09-12T09:38:13;30.07;49.36
70271;SHT31;57680;54.292;18.598;2023-09-12T09:40:38;30.00;49.06
70271;SHT31;57680;54.292;18.598;2023-09-12T09:43:04;29.88;49.32
70271;SHT31;57680;54.292;18.598;2023-09-12T09:45:30;29.94;48.61
70271;SHT31;57680;54.292;18.598;2023-09-12T09:48:04;30.13;48.15
70271;SHT31;57680;54.292;18.598;2023-09-12T09:50:30;30.28;47.88
70271;SHT31;57680;54.292;18.598;2023-09-12T09:52:55;30.41;48.19
70271;SHT31;57680;54.292;18.598;2023-09-12T09:55:21;30.46;47.49
70271;SHT31;57680;54.292;18.598;2023-09-12T09:57:46;30.51;47.29
70271;SHT31;57680;54.292;18.598;2023-09-12T10:00:11;30.52;46.00
70271;SHT31;57680;54.292;18.598;2023-09-12T10:02:38;30.49;45.49
70271;SHT31;57680;54.292;18.598;2023-09-12T10:05:05;30.39;44.83
70271;SHT31;57680;54.292;18.598;2023-09-12T10:07:32;30.32;44.34
70271;SHT31;57680;54.292;18.598;2023-09-12T10:10:01;30.46;46.86
70271;SHT31;57680;54.292;18.598;2023-09-12T10:12:27;30.49;45.82
70271;SHT31;57680;54.292;18.598;2023-09-12T10:14:54;30.44;44.55
70271;SHT31;57680;54.292;18.598;2023-09-12T10:17:23;30.36;43.94
70271;SHT31;57680;54.292;18.598;2023-09-12T10:19:59;30.15;44.94
70271;SHT31;57680;54.292;18.598;2023-09-12T10:22:35;29.87;44.32
70271;SHT31;57680;54.292;18.598;2023-09-12T10:25:01;29.97;45.64
70271;SHT31;57680;54.292;18.598;2023-09-12T10:27:27;29.72;43.34
70271;SHT31;57680;54.292;18.598;2023-09-12T10:29:53;29.80;44.49
70271;SHT31;57680;54.292;18.598;2023-09-12T10:32:18;29.88;45.13
70271;SHT31;57680;54.292;18.598;2023-09-12T10:34:44;29.90;44.10
70271;SHT31;57680;54.292;18.598;2023-09-12T10:37:12;29.94;43.65
70271;SHT31;57680;54.292;18.598;2023-09-12T10:39:40;30.00;44.49
70271;SHT31;57680;54.292;18.598;2023-09-12T10:42:08;30.07;43.89
70271;SHT31;57680;54.292;18.598;2023-09-12T10:44:33;30.17;43.55
70271;SHT31;57680;54.292;18.598;2023-09-12T10:47:00;30.18;43.51
70271;SHT31;57680;54.292;18.598;2023-09-12T10:49:25;30.21;44.30
70271;SHT31;57680;54.292;18.598;2023-09-12T10:51:51;30.25;45.26
70271;SHT31;57680;54.292;18.598;2023-09-12T10:54:38;30.15;42.73
70271;SHT31;57680;54.292;18.598;2023-09-12T10:57:08;30.23;43.83
70271;SHT31;57680;54.292;18.598;2023-09-12T10:59:34;30.29;44.31
70271;SHT31;57680;54.292;18.598;2023-09-12T11:02:32;30.36;44.21
70271;SHT31;57680;54.292;18.598;2023-09-12T11:04:59;30.39;43.55
70271;SHT31;57680;54.292;18.598;2023-09-12T11:10:16;30.31;44.86
70271;SHT31;57680;54.292;18.598;2023-09-12T11:12:43;30.29;44.52
70271;SHT31;57680;54.292;18.598;2023-09-12T11:15:08;30.24;44.87
70271;SHT31;57680;54.292;18.598;2023-09-12T11:17:41;30.25;49.59
70271;SHT31;57680;54.292;18.598;2023-09-12T11:20:07;30.25;45.03
70271;SHT31;57680;54.292;18.598;2023-09-12T11:22:32;30.31;45.62
70271;SHT31;57680;54.292;18.598;2023-09-12T11:25:02;30.29;43.97
70271;SHT31;57680;54.292;18.598;2023-09-12T11:28:02;30.28;45.91
70271;SHT31;57680;54.292;18.598;2023-09-12T11:30:28;30.23;44.83
70271;SHT31;57680;54.292;18.598;2023-09-12T11:32:54;30.14;44.47
70271;SHT31;57680;54.292;18.598;2023-09-12T11:35:37;30.03;44.31
70271;SHT31;57680;54.292;18.598;2023-09-12T11:38:03;30.05;45.45
70271;SHT31;57680;54.292;18.598;2023-09-12T11:43:00;29.97;44.52
70271;SHT31;57680;54.292;18.598;2023-09-12T11:45:27;30.05;45.34
70271;SHT31;57680;54.292;18.598;2023-09-12T11:47:52;30.05;45.08
70271;SHT31;57680;54.292;18.598;2023-09-12T11:50:31;29.93;43.69
70271;SHT31;57680;54.292;18.598;2023-09-12T11:53:07;29.80;44.63
70271;SHT31;57680;54.292;18.598;2023-09-12T11:55:35;29.80;45.76
70271;SHT31;57680;54.292;18.598;2023-09-12T11:58:01;29.69;44.33
70271;SHT31;57680;54.292;18.598;2023-09-12T12:00:27;29.70;44.68
70271;SHT31;57680;54.292;18.598;2023-09-12T12:02:54;29.74;45.35
70271;SHT31;57680;54.292;18.598;2023-09-12T12:05:20;29.74;44.31
70271;SHT31;57680;54.292;18.598;2023-09-12T12:07:46;29.81;45.48
70271;SHT31;57680;54.292;18.598;2023-09-12T12:10:12;29.76;44.65
70271;SHT31;57680;54.292;18.598;2023-09-12T12:12:38;29.53;45.60
70271;SHT31;57680;54.292;18.598;2023-09-12T12:15:03;29.57;46.04
70271;SHT31;57680;54.292;18.598;2023-09-12T12:17:28;29.45;46.02
70271;SHT31;57680;54.292;18.598;2023-09-12T12:19:54;29.47;46.04
70271;SHT31;57680;54.292;18.598;2023-09-12T12:22:19;29.47;45.70
70271;SHT31;57680;54.292;18.598;2023-09-12T12:24:46;29.36;45.80
70271;SHT31;57680;54.292;18.598;2023-09-12T12:27:11;29.37;46.58
70271;SHT31;57680;54.292;18.598;2023-09-12T12:29:39;29.36;45.80
70271;SHT31;57680;54.292;18.598;2023-09-12T12:32:05;29.35;45.80
70271;SHT31;57680;54.292;18.598;2023-09-12T12:34:31;29.32;46.56
70271;SHT31;57680;54.292;18.598;2023-09-12T12:36:57;29.50;45.65
70271;SHT31;57680;54.292;18.598;2023-09-12T12:39:23;29.50;45.60
70271;SHT31;57680;54.292;18.598;2023-09-12T12:41:48;29.43;45.63
70271;SHT31;57680;54.292;18.598;2023-09-12T12:44:14;29.57;47.40
70271;SHT31;57680;54.292;18.598;2023-09-12T12:46:52;29.59;46.02
70271;SHT31;57680;54.292;18.598;2023-09-12T12:49:19;29.50;46.32
70271;SHT31;57680;54.292;18.598;2023-09-12T12:51:45;29.47;45.43
70271;SHT31;57680;54.292;18.598;2023-09-12T12:54:10;29.47;44.71
70271;SHT31;57680;54.292;18.598;2023-09-12T12:56:37;29.42;44.68
70271;SHT31;57680;54.292;18.598;2023-09-12T12:59:04;29.22;46.20
70271;SHT31;57680;54.292;18.598;2023-09-12T13:01:30;29.23;45.45
70271;SHT31;57680;54.292;18.598;2023-09-12T13:03:55;29.23;44.86
70271;SHT31;57680;54.292;18.598;2023-09-12T13:06:20;29.25;45.26
70271;SHT31;57680;54.292;18.598;2023-09-12T13:08:47;29.19;45.66
70271;SHT31;57680;54.292;18.598;2023-09-12T13:11:14;29.22;45.96
70271;SHT31;57680;54.292;18.598;2023-09-12T13:13:40;29.19;45.04
70271;SHT31;57680;54.292;18.598;2023-09-12T13:16:07;29.23;45.68
70271;SHT31;57680;54.292;18.598;2023-09-12T13:18:33;29.36;46.22
70271;SHT31;57680;54.292;18.598;2023-09-12T13:20:59;29.30;44.11
70271;SHT31;57680;54.292;18.598;2023-09-12T13:23:24;29.27;48.46
70271;SHT31;57680;54.292;18.598;2023-09-12T13:25:50;29.27;45.92
70271;SHT31;57680;54.292;18.598;2023-09-12T13:28:16;29.23;42.46
70271;SHT31;57680;54.292;18.598;2023-09-12T13:30:41;29.20;42.91
70271;SHT31;57680;54.292;18.598;2023-09-12T13:33:06;29.20;43.63
70271;SHT31;57680;54.292;18.598;2023-09-12T13:35:32;29.16;44.14
70271;SHT31;57680;54.292;18.598;2023-09-12T13:37:57;29.23;42.10
70271;SHT31;57680;54.292;18.598;2023-09-12T13:40:22;29.26;44.53
70271;SHT31;57680;54.292;18.598;2023-09-12T13:42:48;29.33;43.18
70271;SHT31;57680;54.292;18.598;2023-09-12T13:45:13;29.27;43.10
70271;SHT31;57680;54.292;18.598;2023-09-12T13:47:38;29.22;43.33
70271;SHT31;57680;54.292;18.598;2023-09-12T13:50:04;29.11;43.80
70271;SHT31;57680;54.292;18.598;2023-09-12T13:52:30;28.99;44.09
70271;SHT31;57680;54.292;18.598;2023-09-12T13:54:55;28.99;44.88
70271;SHT31;57680;54.292;18.598;2023-09-12T13:57:20;28.95;44.27
70271;SHT31;57680;54.292;18.598;2023-09-12T13:59:46;28.96;46.93
70271;SHT31;57680;54.292;18.598;2023-09-12T14:02:11;28.96;45.28
70271;SHT31;57680;54.292;18.598;2023-09-12T14:04:36;28.94;43.61
70271;SHT31;57680;54.292;18.598;2023-09-12T14:07:02;28.84;43.65
70271;SHT31;57680;54.292;18.598;2023-09-12T14:09:27;28.78;43.98
70271;SHT31;57680;54.292;18.598;2023-09-12T14:11:52;28.78;44.84
70271;SHT31;57680;54.292;18.598;2023-09-12T14:14:18;28.64;45.07
70271;SHT31;57680;54.292;18.598;2023-09-12T14:16:44;28.47;45.48
70271;SHT31;57680;54.292;18.598;2023-09-12T14:19:10;28.40;44.53
70271;SHT31;57680;54.292;18.598;2023-09-12T14:21:35;28.32;45.72
70271;SHT31;57680;54.292;18.598;2023-09-12T14:24:00;28.24;46.03
70271;SHT31;57680;54.292;18.598;2023-09-12T14:26:26;28.17;46.13
70271;SHT31;57680;54.292;18.598;2023-09-12T14:28:51;28.12;45.98
70271;SHT31;57680;54.292;18.598;2023-09-12T14:31:16;28.10;45.55
70271;SHT31;57680;54.292;18.598;2023-09-12T14:33:42;28.12;45.98
70271;SHT31;57680;54.292;18.598;2023-09-12T14:36:08;28.09;46.34
70271;SHT31;57680;54.292;18.598;2023-09-12T14:38:33;28.06;45.79
70271;SHT31;57680;54.292;18.598;2023-09-12T14:40:59;28.03;47.07
70271;SHT31;57680;54.292;18.598;2023-09-12T14:43:24;27.96;46.59
70271;SHT31;57680;54.292;18.598;2023-09-12T14:45:49;27.92;47.20
70271;SHT31;57680;54.292;18.598;2023-09-12T14:48:15;27.78;47.07
70271;SHT31;57680;54.292;18.598;2023-09-12T14:50:40;27.69;47.46
70271;SHT31;57680;54.292;18.598;2023-09-12T14:53:06;27.65;47.68
70271;SHT31;57680;54.292;18.598;2023-09-12T14:55:31;27.59;48.14
70271;SHT31;57680;54.292;18.598;2023-09-12T14:57:57;27.58;48.31
70271;SHT31;57680;54.292;18.598;2023-09-12T15:00:22;27.55;48.03
70271;SHT31;57680;54.292;18.598;2023-09-12T15:02:47;27.51;47.51
70271;SHT31;57680;54.292;18.598;2023-09-12T15:05:13;27.54;47.77
70271;SHT31;57680;54.292;18.598;2023-09-12T15:07:38;27.49;47.71
70271;SHT31;57680;54.292;18.598;2023-09-12T15:10:04;27.52;48.80
70271;SHT31;57680;54.292;18.598;2023-09-12T15:12:29;27.55;49.13
70271;SHT31;57680;54.292;18.598;2023-09-12T15:14:55;27.54;49.53
70271;SHT31;57680;54.292;18.598;2023-09-12T15:17:20;27.54;49.76
70271;SHT31;57680;54.292;18.598;2023-09-12T15:19:46;27.54;50.28
70271;SHT31;57680;54.292;18.598;2023-09-12T15:22:11;27.51;50.24
70271;SHT31;57680;54.292;18.598;2023-09-12T15:24:36;27.48;50.60